createdAt,value
2022-11-01T00:00:39.527Z,2.77
2022-11-01T00:03:06.845Z,3.23
2022-11-01T00:05:34.137Z,2.13
2022-11-01T00:08:01.851Z,3.93
2022-11-01T00:10:29.370Z,3.30
2022-11-01T00:12:56.770Z,4.87
2022-11-01T00:15:24.137Z,4.93
2022-11-01T00:17:51.462Z,3.67
2022-11-01T00:20:18.830Z,3.90
2022-11-01T00:22:46.144Z,3.20
2022-11-01T00:25:13.419Z,5.90
2022-11-01T00:27:40.706Z,3.37
2022-11-01T00:30:08.220Z,4.13
2022-11-01T00:32:35.543Z,3.43
2022-11-01T00:35:02.853Z,1.20
2022-11-01T00:37:30.360Z,5.70
2022-11-01T00:39:57.628Z,3.53
2022-11-01T00:42:24.910Z,2.00
2022-11-01T00:44:52.323Z,2.87
2022-11-01T00:47:19.609Z,4.93
2022-11-01T00:49:46.974Z,3.07
2022-11-01T00:52:14.341Z,2.87
2022-11-01T00:54:41.619Z,6.73
2022-11-01T00:57:09.007Z,4.07
2022-11-01T00:59:40.811Z,2.27
2022-11-01T01:02:08.695Z,1.80
2022-11-01T01:04:41.557Z,1.83
2022-11-01T01:07:09.106Z,4.67
2022-11-01T01:09:36.719Z,2.50
2022-11-01T01:12:04.133Z,4.30
2022-11-01T01:14:32.558Z,3.90
2022-11-01T01:17:00.186Z,3.80
2022-11-01T01:19:28.938Z,2.87
2022-11-01T01:21:56.758Z,3.43
2022-11-01T01:24:24.104Z,2.03
2022-11-01T01:26:51.370Z,3.40
2022-11-01T01:29:18.773Z,4.63
2022-11-01T01:31:46.186Z,4.03
2022-11-01T01:34:13.564Z,5.40
2022-11-01T01:36:40.946Z,1.90
2022-11-01T01:39:08.234Z,2.93
2022-11-01T01:41:54.381Z,5.77
2022-11-01T01:44:40.295Z,1.93
2022-11-01T01:47:07.733Z,3.33
2022-11-01T01:49:38.645Z,3.10
2022-11-01T01:52:09.571Z,3.67
2022-11-01T01:54:36.964Z,4.13
2022-11-01T01:57:04.899Z,4.00
2022-11-01T01:59:32.715Z,3.90
2022-11-01T02:02:00.341Z,3.13
2022-11-01T02:04:30.860Z,5.33
2022-11-01T02:06:59.649Z,2.10
2022-11-01T02:09:30.869Z,4.10
2022-11-01T02:11:59.209Z,2.47
2022-11-01T02:14:26.990Z,3.10
2022-11-01T02:16:54.320Z,5.70
2022-11-01T02:19:39.687Z,2.00
2022-11-01T02:22:10.305Z,2.37
2022-11-01T02:24:56.127Z,3.40
2022-11-01T02:27:43.400Z,4.33
2022-11-01T02:30:13.400Z,2.67
2022-11-01T02:32:52.981Z,1.57
2022-11-01T02:35:24.649Z,3.90
2022-11-01T02:37:59.602Z,2.77
2022-11-01T02:40:34.785Z,1.77
2022-11-01T02:43:04.941Z,4.20
2022-11-01T02:45:35.243Z,2.20
2022-11-01T02:48:03.524Z,3.20
2022-11-01T02:50:53.857Z,1.93
2022-11-01T02:53:21.166Z,3.00
2022-11-01T02:55:48.547Z,6.10
2022-11-01T02:58:15.853Z,2.77
2022-11-01T03:00:46.033Z,2.77
2022-11-01T03:03:18.495Z,3.23
2022-11-01T03:05:45.841Z,8.23
2022-11-01T03:08:14.602Z,2.10
2022-11-01T03:10:51.173Z,1.23
2022-11-01T03:13:22.534Z,4.47
2022-11-01T03:15:55.294Z,1.53
2022-11-01T03:18:36.559Z,3.60
2022-11-01T03:21:16.100Z,2.03
2022-11-01T03:23:50.930Z,3.20
2022-11-01T03:26:21.394Z,5.17
2022-11-01T03:28:51.679Z,3.20
2022-11-01T03:31:21.400Z,5.80
2022-11-01T03:33:57.299Z,6.80
2022-11-01T03:36:26.585Z,3.57
2022-11-01T03:39:10.378Z,4.33
2022-11-01T03:41:40.363Z,7.13
2022-11-01T03:44:07.649Z,4.17
2022-11-01T03:46:34.918Z,2.83
2022-11-01T03:49:02.232Z,3.90
2022-11-01T03:51:30.208Z,4.83
2022-11-01T03:53:57.673Z,2.60
2022-11-01T03:56:25.048Z,3.07
2022-11-01T03:58:52.328Z,1.93
2022-11-01T04:01:19.855Z,2.50
2022-11-01T04:03:47.291Z,2.13
2022-11-01T04:06:14.615Z,2.83
2022-11-01T04:08:42.135Z,5.53
2022-11-01T04:11:09.447Z,6.53
2022-11-01T04:13:36.866Z,3.30
2022-11-01T04:16:22.623Z,1.67
2022-11-01T04:19:08.462Z,2.40
2022-11-01T04:21:36.082Z,6.97
2022-11-01T04:24:03.540Z,6.33
2022-11-01T04:26:31.004Z,4.00
2022-11-01T04:28:58.386Z,3.63
2022-11-01T04:31:25.744Z,4.83
2022-11-01T04:33:53.153Z,2.17
2022-11-01T04:36:20.476Z,2.73
2022-11-01T04:38:50.429Z,2.20
2022-11-01T04:41:19.701Z,3.77
2022-11-01T04:43:47.641Z,2.57
2022-11-01T04:46:15.236Z,2.40
2022-11-01T04:48:42.963Z,2.43
2022-11-01T04:51:10.750Z,6.07
2022-11-01T04:53:38.546Z,3.20
2022-11-01T04:56:07.121Z,2.80
2022-11-01T04:58:39.989Z,4.43
2022-11-01T05:01:10.747Z,4.47
2022-11-01T05:03:38.167Z,2.53
2022-11-01T05:06:05.500Z,2.77
2022-11-01T05:08:33.158Z,7.57
2022-11-01T05:11:00.552Z,4.10
2022-11-01T05:13:27.868Z,5.03
2022-11-01T05:16:17.970Z,3.20
2022-11-01T05:18:45.647Z,3.40
2022-11-01T05:21:12.989Z,4.17
2022-11-01T05:23:40.298Z,2.90
2022-11-01T05:26:07.615Z,4.90
2022-11-01T05:28:34.944Z,3.80
2022-11-01T05:31:02.214Z,3.70
2022-11-01T05:33:29.640Z,4.10
2022-11-01T05:35:57.021Z,5.47
2022-11-01T05:38:24.348Z,3.37
2022-11-01T05:40:51.702Z,4.90
2022-11-01T05:43:19.012Z,2.17
2022-11-01T05:45:46.355Z,4.83
2022-11-01T05:48:13.666Z,6.20
2022-11-01T05:50:40.956Z,6.97
2022-11-01T05:53:09.189Z,2.50
2022-11-01T05:55:37.231Z,4.53
2022-11-01T05:58:04.670Z,4.93
2022-11-01T06:00:32.220Z,2.87
2022-11-01T06:03:00.041Z,4.83
2022-11-01T06:05:28.470Z,2.50
2022-11-01T06:07:55.886Z,4.13
2022-11-01T06:10:23.387Z,4.10
2022-11-01T06:12:51.847Z,5.37
2022-11-01T06:15:19.430Z,7.50
2022-11-01T06:17:47.074Z,5.97
2022-11-01T06:20:14.348Z,6.70
2022-11-01T06:22:41.727Z,5.10
2022-11-01T06:25:09.540Z,6.87
2022-11-01T06:27:36.907Z,5.30
2022-11-01T06:30:04.459Z,2.53
2022-11-01T06:32:31.775Z,5.17
2022-11-01T06:34:59.044Z,6.00
2022-11-01T06:37:26.324Z,6.43
2022-11-01T06:39:53.660Z,7.43
2022-11-01T06:42:20.992Z,3.70
2022-11-01T06:44:48.400Z,6.80
2022-11-01T06:47:15.759Z,5.13
2022-11-01T06:49:43.104Z,5.03
2022-11-01T06:52:10.471Z,5.50
2022-11-01T06:54:37.846Z,6.23
2022-11-01T06:57:05.246Z,7.17
2022-11-01T06:59:32.614Z,5.57
2022-11-01T07:02:00.173Z,4.90
2022-11-01T07:04:29.250Z,3.63
2022-11-01T07:06:56.620Z,6.20
2022-11-01T07:09:24.025Z,4.23
2022-11-01T07:11:51.427Z,7.80
2022-11-01T07:14:18.906Z,6.00
2022-11-01T07:16:46.278Z,9.10
2022-11-01T07:19:13.593Z,11.03
2022-11-01T07:21:40.947Z,9.00
2022-11-01T07:24:08.305Z,11.37
2022-11-01T07:26:35.669Z,7.87
2022-11-01T07:29:03.107Z,10.63
2022-11-01T07:31:33.333Z,8.70
2022-11-01T07:34:00.813Z,8.40
2022-11-01T07:36:28.152Z,13.17
2022-11-01T07:38:55.506Z,9.23
2022-11-01T07:41:24.073Z,11.03
2022-11-01T07:43:51.435Z,11.23
2022-11-01T07:46:18.730Z,9.90
2022-11-01T07:48:46.047Z,10.17
2022-11-01T07:51:13.488Z,9.10
2022-11-01T07:53:40.814Z,11.57
2022-11-01T07:56:08.271Z,9.87
2022-11-01T07:58:35.788Z,8.23
2022-11-01T08:01:03.142Z,10.67
2022-11-01T08:03:31.016Z,13.47
2022-11-01T08:05:58.407Z,17.47
2022-11-01T08:08:25.791Z,12.47
2022-11-01T08:10:53.153Z,14.93
2022-11-01T08:13:24.990Z,13.27
2022-11-01T08:15:53.087Z,12.07
2022-11-01T08:18:27.269Z,11.07
2022-11-01T08:20:54.642Z,11.73
2022-11-01T08:23:22.027Z,9.47
2022-11-01T08:25:50.325Z,12.53
2022-11-01T08:28:19.082Z,12.43
2022-11-01T08:30:47.285Z,12.17
2022-11-01T08:33:14.963Z,10.17
2022-11-01T08:35:47.351Z,13.90
2022-11-01T08:38:17.329Z,9.53
2022-11-01T08:40:44.633Z,13.77
2022-11-01T08:43:11.967Z,12.57
2022-11-01T08:45:39.382Z,8.07
2022-11-01T08:48:07.286Z,14.30
2022-11-01T08:50:35.494Z,12.53
2022-11-01T08:53:06.794Z,8.63
2022-11-01T08:55:37.663Z,11.83
2022-11-01T08:58:06.137Z,10.97
2022-11-01T09:00:33.748Z,9.80
2022-11-01T09:03:01.121Z,10.33
2022-11-01T09:05:31.705Z,13.77
2022-11-01T09:08:02.759Z,13.60
2022-11-01T09:10:31.112Z,12.90
2022-11-01T09:13:02.852Z,12.77
2022-11-01T09:15:30.780Z,15.97
2022-11-01T09:17:58.180Z,16.50
2022-11-01T09:20:26.605Z,10.30
2022-11-01T09:22:54.034Z,13.77
2022-11-01T09:25:21.489Z,11.80
2022-11-01T09:27:48.890Z,12.97
2022-11-01T09:30:16.330Z,11.40
2022-11-01T09:32:43.692Z,10.80
2022-11-01T09:35:11.149Z,12.43
2022-11-01T09:37:38.536Z,8.97
2022-11-01T09:40:06.190Z,12.47
2022-11-01T09:42:40.320Z,13.80
2022-11-01T09:45:14.474Z,12.83
2022-11-01T09:47:46.196Z,9.60
2022-11-01T09:50:19.643Z,11.93
2022-11-01T09:52:46.999Z,8.20
2022-11-01T09:55:16.119Z,11.73
2022-11-01T09:57:55.281Z,10.63
2022-11-01T10:00:22.871Z,7.53
2022-11-01T10:02:50.387Z,8.40
2022-11-01T10:05:36.608Z,10.40
2022-11-01T10:08:19.378Z,11.90
2022-11-01T10:10:52.948Z,11.43
2022-11-01T10:13:23.002Z,15.83
2022-11-01T10:16:03.964Z,12.73
2022-11-01T10:18:32.423Z,8.80
2022-11-01T10:21:02.865Z,12.17
2022-11-01T10:23:50.408Z,10.77
2022-11-01T10:26:20.633Z,8.17
2022-11-01T10:28:50.722Z,10.93
2022-11-01T10:31:20.723Z,11.00
2022-11-01T10:33:48.109Z,11.57
2022-11-01T10:36:20.793Z,6.50
2022-11-01T10:39:37.014Z,9.17
2022-11-01T10:41:54.589Z,10.33
2022-11-01T10:44:30.302Z,7.43
2022-11-01T10:46:58.156Z,10.07
2022-11-01T10:49:40.491Z,10.60
2022-11-01T10:52:19.723Z,7.43
2022-11-01T10:54:47.546Z,12.53
2022-11-01T10:57:27.145Z,6.87
2022-11-01T10:59:54.870Z,10.93
2022-11-01T11:02:24.851Z,8.77
2022-11-01T11:04:52.833Z,8.43
2022-11-01T11:07:23.202Z,12.27
2022-11-01T11:09:51.699Z,8.43
2022-11-01T11:12:23.494Z,8.33
2022-11-01T11:14:52.273Z,5.33
2022-11-01T11:17:28.251Z,5.83
2022-11-01T11:19:56.087Z,9.80
2022-11-01T11:22:24.067Z,7.50
2022-11-01T11:24:52.977Z,6.83
2022-11-01T11:27:25.143Z,6.73
2022-11-01T11:29:57.794Z,6.43
2022-11-01T11:32:26.733Z,8.30
2022-11-01T11:35:02.155Z,12.47
2022-11-01T11:37:31.084Z,8.20
2022-11-01T11:40:13.804Z,9.63
2022-11-01T11:42:41.128Z,6.27
2022-11-01T11:45:19.986Z,9.17
2022-11-01T11:47:48.144Z,10.03
2022-11-01T11:50:21.790Z,6.13
2022-11-01T11:52:50.229Z,8.00
2022-11-01T11:55:29.847Z,8.27
2022-11-01T11:57:57.226Z,9.20
2022-11-01T12:00:28.347Z,6.10
2022-11-01T12:02:55.966Z,8.70
2022-11-01T12:05:28.823Z,9.70
2022-11-01T12:07:57.234Z,11.33
2022-11-01T12:10:30.492Z,8.47
2022-11-01T12:12:58.026Z,5.70
2022-11-01T12:15:26.982Z,7.27
2022-11-01T12:17:54.453Z,8.67
2022-11-01T12:20:26.131Z,8.10
2022-11-01T12:23:11.726Z,10.67
2022-11-01T12:25:40.712Z,8.83
2022-11-01T12:28:14.212Z,13.10
2022-11-01T12:30:42.431Z,12.30
2022-11-01T12:33:22.687Z,12.00
2022-11-01T12:35:50.073Z,9.70
2022-11-01T12:38:17.672Z,8.67
2022-11-01T12:40:46.888Z,7.23
2022-11-01T12:43:20.921Z,10.90
2022-11-01T12:45:50.090Z,7.27
2022-11-01T12:48:21.881Z,7.23
2022-11-01T12:51:01.530Z,7.60
2022-11-01T12:53:31.627Z,7.07
2022-11-01T12:55:59.226Z,12.30
2022-11-01T12:58:30.831Z,8.57
2022-11-01T13:01:33.542Z,5.10
2022-11-01T13:04:00.976Z,5.75
2022-11-01T13:06:54.545Z,4.20
2022-11-01T13:09:24.850Z,7.83
2022-11-01T13:11:57.754Z,8.23
2022-11-01T13:14:25.258Z,6.30
2022-11-01T13:16:58.058Z,10.53
2022-11-01T13:19:37.174Z,8.87
2022-11-01T13:22:14.927Z,9.40
2022-11-01T13:24:42.286Z,7.30
2022-11-01T13:27:15.507Z,9.55
2022-11-01T13:29:48.877Z,6.60
2022-11-01T13:32:26.027Z,7.90
2022-11-01T13:35:12.658Z,5.75
2022-11-01T13:37:40.731Z,6.35
2022-11-01T13:40:10.949Z,9.30
2022-11-01T13:42:42.802Z,7.45
2022-11-01T13:45:42.267Z,7.63
2022-11-01T13:48:28.351Z,9.10
2022-11-01T13:50:58.513Z,7.10
2022-11-01T13:53:31.532Z,7.07
2022-11-01T13:56:02.215Z,4.87
2022-11-01T13:58:32.762Z,11.53
2022-11-01T14:01:20.103Z,9.73
2022-11-01T14:03:49.949Z,8.43
2022-11-01T14:06:23.601Z,7.63
2022-11-01T14:08:55.046Z,8.23
2022-11-01T14:11:41.067Z,7.40
2022-11-01T14:14:26.805Z,7.67
2022-11-01T14:16:54.947Z,6.90
2022-11-01T14:19:22.299Z,7.20
2022-11-01T14:21:50.314Z,8.60
2022-11-01T14:24:23.032Z,6.37
2022-11-01T14:26:53.252Z,10.83
2022-11-01T14:29:20.611Z,9.93
2022-11-01T14:31:49.198Z,8.43
2022-11-01T14:34:27.928Z,15.73
2022-11-01T14:36:56.774Z,14.90
2022-11-01T14:39:42.037Z,9.67
2022-11-01T14:42:12.034Z,11.67
2022-11-01T14:44:42.697Z,8.07
2022-11-01T14:47:23.755Z,11.47
2022-11-01T14:49:53.328Z,10.47
2022-11-01T14:52:31.288Z,7.90
2022-11-01T14:55:05.023Z,8.90
2022-11-01T14:57:33.730Z,9.33
2022-11-01T15:00:18.518Z,7.27
2022-11-01T15:02:46.006Z,7.07
2022-11-01T15:05:16.900Z,7.03
2022-11-01T15:07:44.475Z,8.43
2022-11-01T15:10:13.388Z,7.50
2022-11-01T15:12:59.969Z,11.57
2022-11-01T15:15:29.488Z,8.25
2022-11-01T15:17:58.414Z,8.30
2022-11-01T15:20:26.779Z,8.35
2022-11-01T15:22:55.341Z,6.15
2022-11-01T15:25:26.576Z,8.10
2022-11-01T15:27:55.096Z,5.70
2022-11-01T15:30:22.493Z,7.10
2022-11-01T15:32:53.954Z,6.75
2022-11-01T15:35:25.723Z,8.02
2022-11-01T15:37:54.610Z,7.23
2022-11-01T15:40:32.384Z,5.43
2022-11-01T15:43:01.451Z,8.98
2022-11-01T15:45:30.769Z,4.47
2022-11-01T15:48:01.147Z,11.23
2022-11-01T15:50:33.813Z,7.67
2022-11-01T15:53:04.378Z,7.40
2022-11-01T15:55:36.514Z,8.45
2022-11-01T15:58:17.072Z,6.75
2022-11-01T16:00:46.725Z,5.67
2022-11-01T16:03:17.203Z,5.67
2022-11-01T16:05:46.561Z,5.63
2022-11-01T16:08:40.193Z,9.00
2022-11-01T16:11:07.858Z,7.40
2022-11-01T16:13:37.878Z,10.07
2022-11-01T16:16:12.534Z,7.13
2022-11-01T16:18:41.768Z,5.80
2022-11-01T16:21:21.406Z,7.70
2022-11-01T16:23:58.028Z,7.30
2022-11-01T16:26:25.781Z,5.87
2022-11-01T16:28:54.923Z,8.83
2022-11-01T16:31:29.966Z,5.83
2022-11-01T16:33:57.887Z,10.90
2022-11-01T16:36:44.205Z,8.40
2022-11-01T16:39:28.328Z,8.13
2022-11-01T16:41:55.749Z,6.63
2022-11-01T16:44:23.162Z,8.57
2022-11-01T16:46:50.853Z,7.77
2022-11-01T16:49:25.182Z,5.00
2022-11-01T16:51:52.783Z,4.50
2022-11-01T16:54:20.186Z,7.43
2022-11-01T16:56:49.185Z,4.30
2022-11-01T16:59:22.593Z,5.13
2022-11-01T17:01:51.142Z,7.23
2022-11-01T17:04:18.909Z,5.47
2022-11-01T17:06:46.743Z,6.63
2022-11-01T17:09:15.161Z,6.00
2022-11-01T17:11:49.567Z,5.77
2022-11-01T17:14:19.104Z,5.80
2022-11-01T17:16:47.842Z,8.70
2022-11-01T17:19:20.683Z,5.43
2022-11-01T17:21:48.252Z,7.93
2022-11-01T17:24:19.131Z,9.07
2022-11-01T17:26:46.713Z,5.33
2022-11-01T17:29:17.591Z,7.17
2022-11-01T17:31:45.025Z,6.17
2022-11-01T17:34:12.402Z,4.77
2022-11-01T17:36:42.190Z,5.10
2022-11-01T17:39:10.731Z,6.30
2022-11-01T17:41:41.070Z,6.60
2022-11-01T17:44:08.473Z,5.73
2022-11-01T17:46:35.852Z,3.40
2022-11-01T17:49:03.191Z,5.83
2022-11-01T17:51:30.691Z,5.47
2022-11-01T17:53:58.725Z,5.60
2022-11-01T17:56:26.138Z,4.33
2022-11-01T17:58:53.969Z,8.53
2022-11-01T18:01:21.833Z,3.93
2022-11-01T18:03:49.438Z,4.93
2022-11-01T18:06:17.329Z,6.27
2022-11-01T18:08:46.714Z,5.57
2022-11-01T18:11:14.109Z,5.67
2022-11-01T18:13:52.243Z,4.27
2022-11-01T18:16:38.158Z,10.57
2022-11-01T18:19:14.352Z,7.97
2022-11-01T18:22:04.992Z,5.63
2022-11-01T18:24:37.197Z,6.83
2022-11-01T18:27:14.514Z,3.27
2022-11-01T18:29:44.165Z,5.87
2022-11-01T18:32:27.212Z,8.10
2022-11-01T18:35:12.943Z,5.30
2022-11-01T18:37:43.055Z,8.07
2022-11-01T18:40:10.454Z,3.77
2022-11-01T18:42:37.832Z,4.90
2022-11-01T18:45:30.367Z,7.53
2022-11-01T18:48:09.064Z,24.10
2022-11-01T18:50:38.662Z,9.37
2022-11-01T18:53:16.405Z,9.77
2022-11-01T18:55:44.689Z,9.10
2022-11-01T18:58:12.031Z,5.77
2022-11-01T19:00:39.510Z,6.60
2022-11-01T19:03:11.661Z,4.30
2022-11-01T19:05:42.284Z,3.97
2022-11-01T19:08:26.603Z,5.03
2022-11-01T19:10:55.118Z,5.43
2022-11-01T19:13:34.176Z,4.10
2022-11-01T19:16:02.220Z,4.83
2022-11-01T19:18:29.846Z,3.23
2022-11-01T19:20:58.303Z,3.60
2022-11-01T19:23:32.742Z,5.90
2022-11-01T19:26:00.254Z,4.93
2022-11-01T19:28:30.734Z,7.70
2022-11-01T19:31:02.178Z,5.20
2022-11-01T19:33:33.423Z,5.90
2022-11-01T19:36:03.864Z,4.70
2022-11-01T19:38:31.774Z,8.60
2022-11-01T19:40:59.591Z,5.93
2022-11-01T19:43:28.071Z,4.20
2022-11-01T19:45:57.727Z,6.73
2022-11-01T19:48:29.062Z,6.17
2022-11-01T19:50:56.663Z,3.63
2022-11-01T19:53:32.322Z,4.37
2022-11-01T19:56:03.637Z,6.43
2022-11-01T19:58:42.252Z,7.73
2022-11-01T20:01:10.148Z,5.80
2022-11-01T20:03:44.163Z,5.60
2022-11-01T20:06:16.102Z,3.67
2022-11-01T20:08:45.442Z,4.53
2022-11-01T20:11:13.460Z,5.67
2022-11-01T20:13:43.926Z,5.13
2022-11-01T20:16:11.366Z,3.53
2022-11-01T20:18:38.795Z,4.33
2022-11-01T20:21:06.495Z,8.00
2022-11-01T20:23:34.226Z,7.53
2022-11-01T20:26:01.826Z,5.50
2022-11-01T20:28:29.221Z,8.40
2022-11-01T20:30:56.682Z,7.93
2022-11-01T20:33:24.726Z,8.97
2022-11-01T20:35:52.829Z,6.83
2022-11-01T20:40:52.609Z,6.63
2022-11-01T20:43:21.320Z,5.03
2022-11-01T20:45:48.623Z,7.63
2022-11-01T20:48:16.043Z,5.60
2022-11-01T20:50:43.426Z,10.13
2022-11-01T20:53:10.904Z,7.13
2022-11-01T20:55:38.266Z,6.23
2022-11-01T20:58:05.918Z,4.30
2022-11-01T21:00:33.668Z,6.50
2022-11-01T21:03:02.501Z,5.37
2022-11-01T21:05:31.047Z,5.23
2022-11-01T21:08:06.956Z,5.87
2022-11-01T21:10:35.241Z,6.27
2022-11-01T21:13:04.155Z,4.63
2022-11-01T21:15:36.187Z,5.30
2022-11-01T21:18:03.547Z,7.20
2022-11-01T21:20:30.993Z,7.10
2022-11-01T21:23:01.568Z,7.87
2022-11-01T21:25:31.474Z,4.83
2022-11-01T21:27:58.848Z,8.57
2022-11-01T21:30:26.166Z,4.13
2022-11-01T21:32:53.546Z,7.70
2022-11-01T21:35:20.854Z,6.90
2022-11-01T21:37:53.159Z,8.87
2022-11-01T21:40:27.730Z,3.50
2022-11-01T21:42:58.176Z,3.90
2022-11-01T21:45:29.770Z,7.60
2022-11-01T21:48:00.856Z,4.27
2022-11-01T21:50:28.468Z,9.33
2022-11-01T21:52:55.886Z,9.00
2022-11-01T21:55:23.483Z,8.87
2022-11-01T21:57:50.813Z,4.43
2022-11-01T22:00:18.327Z,8.17
2022-11-01T22:02:45.867Z,6.07
2022-11-01T22:05:13.346Z,5.00
2022-11-01T22:07:40.707Z,5.37
2022-11-01T22:10:08.321Z,6.00
2022-11-01T22:12:35.707Z,4.17
2022-11-01T22:15:03.084Z,4.07
2022-11-01T22:17:30.427Z,7.73
2022-11-01T22:19:57.687Z,3.73
2022-11-01T22:22:25.067Z,6.57
2022-11-01T22:24:52.428Z,3.97
2022-11-01T22:27:20.083Z,2.83
2022-11-01T22:29:47.723Z,3.33
2022-11-01T22:32:14.968Z,3.80
2022-11-01T22:34:42.265Z,7.10
2022-11-01T22:37:15.655Z,3.80
2022-11-01T22:39:43.031Z,3.87
2022-11-01T22:42:14.074Z,4.80
2022-11-01T22:44:42.263Z,5.13
2022-11-01T22:47:15.744Z,3.90
2022-11-01T22:49:46.250Z,6.37
2022-11-01T22:52:19.783Z,3.73
2022-11-01T22:54:48.235Z,4.90
2022-11-01T22:57:16.827Z,4.80
2022-11-01T22:59:54.112Z,3.80
2022-11-01T23:02:25.202Z,4.80
2022-11-01T23:04:55.710Z,5.23
2022-11-01T23:07:32.219Z,3.13
2022-11-01T23:10:05.426Z,3.73
2022-11-01T23:12:52.484Z,4.77
2022-11-01T23:15:33.446Z,3.50
2022-11-01T23:18:12.279Z,3.83
2022-11-01T23:20:43.568Z,7.20
2022-11-01T23:23:19.519Z,4.07
2022-11-01T23:25:49.923Z,3.43
2022-11-01T23:28:17.482Z,3.90
2022-11-01T23:30:46.368Z,5.43
2022-11-01T23:33:14.598Z,5.13
2022-11-01T23:35:42.298Z,6.73
2022-11-01T23:38:18.063Z,4.83
2022-11-01T23:40:45.483Z,3.73
2022-11-01T23:43:23.459Z,4.27
2022-11-01T23:45:52.305Z,3.63
2022-11-01T23:48:20.729Z,5.30
2022-11-01T23:50:48.523Z,10.20
2022-11-01T23:53:18.304Z,7.67
2022-11-01T23:55:47.853Z,4.00
2022-11-01T23:58:20.225Z,5.87
